Time;durP1;ratioP1;P1;durP2;ratioP2;P2;SDS_P1;SDS_P2;PMS_P1;PMS_P2;Temp;Humidity;BMP_temperature;BMP_pressure;BME280_temperature;BME280_humidity;BME280_pressure;Samples;Min_cycle;Max_cycle;Signal;HPM_P1;HPM_P2
2023/11/20 00:01:41;;;;;;;3.10;2.57;;;;;;;;;;4973905;28;20226;-84
2023/11/20 00:04:12;;;;;;;6.20;3.03;;;;;;;;;;4943596;28;20234;-83
2023/11/20 00:06:42;;;;;;;4.73;3.50;;;;;;;;;;4958576;28;20230;-83
2023/11/20 00:09:15;;;;;;;4.03;3.63;;;;;;;;;;4955966;28;20225;-84
2023/11/20 00:11:43;;;;;;;10.63;3.63;;;;;;;;;;4948418;28;20218;-83
2023/11/20 00:14:11;;;;;;;4.40;3.60;;;;;;;;;;4964244;28;20268;-81
2023/11/20 00:16:41;;;;;;;3.20;2.90;;;;;;;;;;4959948;28;20214;-82
2023/11/20 00:19:10;;;;;;;3.50;3.17;;;;;;;;;;4945623;28;20297;-82
2023/11/20 00:21:43;;;;;;;3.67;2.90;;;;;;;;;;4942675;28;20218;-81
2023/11/20 00:24:12;;;;;;;3.63;3.23;;;;;;;;;;4959108;28;20253;-84
2023/11/20 00:26:39;;;;;;;4.97;3.97;;;;;;;;;;4959632;28;20706;-83
2023/11/20 00:29:08;;;;;;;4.43;4.03;;;;;;;;;;4947187;28;20222;-85
2023/11/20 00:31:36;;;;;;;4.63;4.13;;;;;;;;;;4977019;28;20918;-85
2023/11/20 00:34:03;;;;;;;5.80;4.33;;;;;;;;;;4940209;28;20227;-81
2023/11/20 00:36:31;;;;;;;4.97;4.47;;;;;;;;;;4936788;28;20219;-80
2023/11/20 00:38:56;;;;;;;4.10;3.73;;;;;;;;;;4937815;28;20228;-82
2023/11/20 00:41:25;;;;;;;4.20;3.80;;;;;;;;;;4936634;28;20230;-82
2023/11/20 00:43:55;;;;;;;4.23;3.83;;;;;;;;;;4954041;28;20326;-78
2023/11/20 00:46:23;;;;;;;9.73;4.00;;;;;;;;;;4969685;28;20309;-82
2023/11/20 00:48:49;;;;;;;4.20;3.90;;;;;;;;;;4952788;28;20237;-82
2023/11/20 00:51:21;;;;;;;4.47;4.07;;;;;;;;;;4954802;28;20297;-83
2023/11/20 00:53:50;;;;;;;7.40;4.27;;;;;;;;;;4955839;28;20237;-82
2023/11/20 00:56:19;;;;;;;7.27;3.90;;;;;;;;;;4956180;28;20222;-82
2023/11/20 00:58:46;;;;;;;7.83;3.97;;;;;;;;;;4942892;28;20230;-83
2023/11/20 01:01:12;;;;;;;6.03;3.63;;;;;;;;;;4958332;28;20652;-82
2023/11/20 01:03:38;;;;;;;3.70;3.37;;;;;;;;;;4974350;28;20230;-83
2023/11/20 01:06:08;;;;;;;4.27;3.63;;;;;;;;;;4943892;28;20224;-81
2023/11/20 01:08:35;;;;;;;5.40;3.77;;;;;;;;;;4959133;28;20899;-82
2023/11/20 01:11:01;;;;;;;5.63;3.57;;;;;;;;;;4959906;28;20218;-83
2023/11/20 01:13:26;;;;;;;5.57;3.30;;;;;;;;;;4976065;28;20586;-83
2023/11/20 01:15:54;;;;;;;4.23;3.83;;;;;;;;;;4947839;28;20242;-85
2023/11/20 01:18:22;;;;;;;4.27;3.93;;;;;;;;;;4965265;28;20218;-82
2023/11/20 01:20:48;;;;;;;4.53;4.13;;;;;;;;;;4971526;28;20221;-83
2023/11/20 01:23:13;;;;;;;4.53;4.07;;;;;;;;;;4955897;28;20241;-83
2023/11/20 01:25:39;;;;;;;10.50;4.23;;;;;;;;;;4974547;28;20229;-84
2023/11/20 01:28:05;;;;;;;4.40;4.10;;;;;;;;;;4944313;28;20217;-84
2023/11/20 01:30:35;;;;;;;5.00;4.60;;;;;;;;;;4978755;28;20233;-83
2023/11/20 01:33:00;;;;;;;5.40;4.90;;;;;;;;;;4948205;28;20214;-84
2023/11/20 01:35:26;;;;;;;6.17;4.63;;;;;;;;;;4944638;28;20229;-82
2023/11/20 01:37:56;;;;;;;4.30;4.00;;;;;;;;;;4944027;28;20226;-83
2023/11/20 01:40:25;;;;;;;4.77;4.37;;;;;;;;;;4933826;28;20227;-84
2023/11/20 01:42:53;;;;;;;5.00;4.60;;;;;;;;;;4955534;28;20648;-84
2023/11/20 01:45:21;;;;;;;5.10;4.73;;;;;;;;;;4925563;28;20224;-85
2023/11/20 01:47:50;;;;;;;6.13;5.20;;;;;;;;;;4969068;28;20222;-83
2023/11/20 01:50:16;;;;;;;4.87;4.57;;;;;;;;;;4952187;28;20227;-84
2023/11/20 01:52:45;;;;;;;4.83;4.47;;;;;;;;;;4969367;28;20222;-83
2023/11/20 01:55:13;;;;;;;5.37;4.97;;;;;;;;;;4966488;28;20236;-85
2023/11/20 01:57:41;;;;;;;5.83;4.57;;;;;;;;;;4957541;28;20222;-85
2023/11/20 02:00:09;;;;;;;4.47;4.07;;;;;;;;;;4943234;28;20233;-84
2023/11/20 02:02:42;;;;;;;4.10;3.80;;;;;;;;;;4953081;28;20337;-85
2023/11/20 02:05:09;;;;;;;4.40;3.90;;;;;;;;;;4925554;28;20258;-85
2023/11/20 02:07:35;;;;;;;4.63;3.83;;;;;;;;;;4947958;28;20211;-83
2023/11/20 02:10:04;;;;;;;4.20;3.90;;;;;;;;;;4949768;28;20658;-84
2023/11/20 02:12:33;;;;;;;3.73;3.43;;;;;;;;;;4930250;28;20233;-83
2023/11/20 02:14:58;;;;;;;3.13;2.93;;;;;;;;;;4925767;28;20222;-83
2023/11/20 02:17:27;;;;;;;3.57;2.90;;;;;;;;;;4926877;28;20226;-82
2023/11/20 02:19:54;;;;;;;1.80;1.70;;;;;;;;;;4926467;28;20312;-82
2023/11/20 02:22:22;;;;;;;1.97;1.87;;;;;;;;;;4941889;28;20300;-84
2023/11/20 02:24:48;;;;;;;2.00;1.80;;;;;;;;;;4943704;28;20233;-82
2023/11/20 02:27:35;;;;;;;3.07;2.63;;;;;;;;;;4941867;28;20226;-82
2023/11/20 02:30:03;;;;;;;2.57;2.10;;;;;;;;;;4944370;28;20576;-83
2023/11/20 02:32:29;;;;;;;1.43;1.33;;;;;;;;;;4958600;28;20237;-84
2023/11/20 02:34:57;;;;;;;1.57;1.20;;;;;;;;;;4944581;28;20869;-83
2023/11/20 02:37:27;;;;;;;0.97;0.90;;;;;;;;;;4957519;28;20237;-84
2023/11/20 02:39:54;;;;;;;2.73;2.10;;;;;;;;;;4957981;28;20226;-83
2023/11/20 02:42:25;;;;;;;5.47;2.93;;;;;;;;;;4939933;28;20246;-83
2023/11/20 02:44:51;;;;;;;10.03;4.90;;;;;;;;;;4960591;28;20222;-82
2023/11/20 02:47:18;;;;;;;2.23;1.67;;;;;;;;;;4957200;28;20604;-86
2023/11/20 02:49:46;;;;;;;2.30;1.90;;;;;;;;;;4962167;28;20229;-83
2023/11/20 02:52:15;;;;;;;2.77;2.50;;;;;;;;;;4959257;28;20659;-86
2023/11/20 02:54:44;;;;;;;2.27;1.70;;;;;;;;;;4928244;28;20237;-85
2023/11/20 02:57:12;;;;;;;1.20;1.10;;;;;;;;;;4926908;28;20208;-85
2023/11/20 02:59:40;;;;;;;1.30;1.20;;;;;;;;;;4970151;28;20321;-86
2023/11/20 03:02:05;;;;;;;1.90;1.80;;;;;;;;;;4943022;28;20226;-85
2023/11/20 03:04:33;;;;;;;1.83;1.60;;;;;;;;;;4959163;28;20573;-85
2023/11/20 03:06:59;;;;;;;1.80;1.70;;;;;;;;;;4926509;28;20288;-81
2023/11/20 03:09:24;;;;;;;2.67;1.77;;;;;;;;;;4956086;28;20226;-83
2023/11/20 03:11:52;;;;;;;1.50;1.40;;;;;;;;;;4942578;28;20281;-84
2023/11/20 03:14:20;;;;;;;2.37;2.07;;;;;;;;;;4958605;28;20218;-86
2023/11/20 03:16:47;;;;;;;1.77;1.67;;;;;;;;;;4943442;28;20750;-84
2023/11/20 03:19:16;;;;;;;2.10;2.00;;;;;;;;;;4956717;28;20245;-83
2023/11/20 03:21:43;;;;;;;2.20;2.10;;;;;;;;;;4960094;28;20778;-84
2023/11/20 03:24:09;;;;;;;2.40;2.20;;;;;;;;;;4952183;28;20249;-85
2023/11/20 03:26:37;;;;;;;2.50;2.30;;;;;;;;;;4929337;28;20273;-86
2023/11/20 03:29:03;;;;;;;2.30;2.20;;;;;;;;;;4964161;28;20218;-83
2023/11/20 03:31:35;;;;;;;2.03;1.93;;;;;;;;;;4962518;28;20219;-84
2023/11/20 03:34:01;;;;;;;3.40;2.40;;;;;;;;;;4947321;28;20680;-84
2023/11/20 03:36:29;;;;;;;2.73;2.53;;;;;;;;;;4925287;28;20233;-85
2023/11/20 03:38:55;;;;;;;2.37;2.27;;;;;;;;;;4932098;28;20256;-85
2023/11/20 03:41:20;;;;;;;2.63;2.43;;;;;;;;;;4956950;28;20224;-85
2023/11/20 03:43:51;;;;;;;2.80;2.60;;;;;;;;;;4921683;29;20227;-84
2023/11/20 03:46:16;;;;;;;2.27;2.10;;;;;;;;;;4945614;28;20742;-87
2023/11/20 03:48:42;;;;;;;2.00;1.90;;;;;;;;;;4926463;28;20229;-85
2023/11/20 03:51:07;;;;;;;1.70;1.60;;;;;;;;;;4935080;28;20222;-87
2023/11/20 03:53:34;;;;;;;1.47;1.37;;;;;;;;;;4942155;28;20233;-84
2023/11/20 03:56:02;;;;;;;1.63;1.57;;;;;;;;;;4952995;28;20222;-85
2023/11/20 03:58:32;;;;;;;2.00;1.90;;;;;;;;;;4939366;28;20588;-85
2023/11/20 04:04:47;;;;;;;1.70;1.60;;;;;;;;;;4964174;28;20284;-85
2023/11/20 04:07:13;;;;;;;1.93;1.83;;;;;;;;;;4941429;28;20222;-83
2023/11/20 04:09:40;;;;;;;1.90;1.80;;;;;;;;;;4951934;28;21316;-87
2023/11/20 04:12:06;;;;;;;2.07;1.93;;;;;;;;;;4955387;28;20226;-84
2023/11/20 04:14:34;;;;;;;2.00;1.90;;;;;;;;;;4954666;28;20274;-85
2023/11/20 04:16:59;;;;;;;2.13;2.00;;;;;;;;;;4941908;28;20226;-85
2023/11/20 04:19:25;;;;;;;2.60;2.40;;;;;;;;;;4933161;28;20232;-86
2023/11/20 04:21:52;;;;;;;4.20;2.80;;;;;;;;;;4927185;28;20715;-83
2023/11/20 04:24:18;;;;;;;3.10;2.90;;;;;;;;;;4957543;28;20218;-86
2023/11/20 04:26:44;;;;;;;3.20;3.00;;;;;;;;;;4941389;28;20222;-87
2023/11/20 04:29:09;;;;;;;3.90;3.50;;;;;;;;;;4966287;28;20226;-87
2023/11/20 04:31:35;;;;;;;3.97;3.73;;;;;;;;;;4960309;28;20228;-86
2023/11/20 04:34:00;;;;;;;4.03;3.67;;;;;;;;;;4961311;28;20253;-84
2023/11/20 04:36:26;;;;;;;3.77;3.53;;;;;;;;;;4962759;28;20218;-88
2023/11/20 04:38:54;;;;;;;4.27;3.97;;;;;;;;;;4958426;28;20229;-85
2023/11/20 04:41:22;;;;;;;4.97;4.63;;;;;;;;;;4926019;28;20226;-86
2023/11/20 04:43:47;;;;;;;6.57;4.40;;;;;;;;;;4938398;28;20237;-79
2023/11/20 04:46:15;;;;;;;5.07;4.67;;;;;;;;;;4967168;28;20234;-80
2023/11/20 04:48:42;;;;;;;5.17;4.77;;;;;;;;;;4969110;28;20783;-78
2023/11/20 04:51:11;;;;;;;5.57;5.17;;;;;;;;;;4952102;28;20226;-79
2023/11/20 04:53:37;;;;;;;5.57;5.17;;;;;;;;;;4949216;28;20218;-78
2023/11/20 04:56:07;;;;;;;6.20;5.80;;;;;;;;;;4950774;28;20229;-79
2023/11/20 04:58:32;;;;;;;6.50;6.00;;;;;;;;;;4933904;28;20325;-78
2023/11/20 05:00:58;;;;;;;6.67;6.17;;;;;;;;;;4951769;28;20707;-81
2023/11/20 05:03:26;;;;;;;6.80;6.30;;;;;;;;;;4965739;28;20229;-77
2023/11/20 05:05:57;;;;;;;7.23;6.63;;;;;;;;;;4967942;28;20588;-77
2023/11/20 05:08:25;;;;;;;11.50;6.90;;;;;;;;;;4950303;28;20222;-78
2023/11/20 05:10:53;;;;;;;8.10;7.40;;;;;;;;;;4951780;28;20235;-78
2023/11/20 05:13:19;;;;;;;8.00;7.30;;;;;;;;;;4965544;28;20309;-77
2023/11/20 05:15:47;;;;;;;8.70;8.00;;;;;;;;;;4951334;28;20229;-78
2023/11/20 05:18:12;;;;;;;8.27;7.47;;;;;;;;;;4965269;28;20229;-78
2023/11/20 05:20:43;;;;;;;8.00;7.40;;;;;;;;;;4966555;28;20226;-79
2023/11/20 05:23:08;;;;;;;8.73;8.00;;;;;;;;;;4964182;28;20246;-79
2023/11/20 05:25:35;;;;;;;7.70;7.10;;;;;;;;;;4935191;28;20272;-76
2023/11/20 05:28:03;;;;;;;8.30;7.60;;;;;;;;;;4951239;28;20230;-79
2023/11/20 05:30:28;;;;;;;8.53;7.73;;;;;;;;;;4966519;28;20230;-77
2023/11/20 05:32:59;;;;;;;9.20;8.37;;;;;;;;;;4966656;28;20225;-78
2023/11/20 05:35:24;;;;;;;10.03;8.63;;;;;;;;;;4954344;28;20225;-78
2023/11/20 05:37:52;;;;;;;9.50;8.53;;;;;;;;;;4955581;28;20232;-78
2023/11/20 05:40:18;;;;;;;9.60;8.77;;;;;;;;;;4954243;28;20284;-78
2023/11/20 05:42:44;;;;;;;11.63;9.93;;;;;;;;;;4953808;28;20226;-79
2023/11/20 05:45:12;;;;;;;11.30;9.50;;;;;;;;;;4969393;28;20229;-79
2023/11/20 05:47:40;;;;;;;9.97;9.07;;;;;;;;;;4941879;28;20573;-79
2023/11/20 05:50:08;;;;;;;14.47;8.43;;;;;;;;;;4954265;28;20218;-79
2023/11/20 05:52:37;;;;;;;17.37;8.20;;;;;;;;;;4937940;28;20315;-79
2023/11/20 05:55:04;;;;;;;7.87;7.13;;;;;;;;;;4970214;28;20326;-77
2023/11/20 05:57:30;;;;;;;8.07;7.23;;;;;;;;;;4954717;28;20234;-79
2023/11/20 05:59:55;;;;;;;7.63;6.93;;;;;;;;;;4970357;28;20230;-79
2023/11/20 06:02:23;;;;;;;8.67;7.77;;;;;;;;;;4936703;28;20281;-78
2023/11/20 06:04:51;;;;;;;9.07;7.53;;;;;;;;;;4952724;28;20590;-78
2023/11/20 06:07:16;;;;;;;10.57;8.30;;;;;;;;;;4952133;28;20234;-79
2023/11/20 06:09:44;;;;;;;8.93;7.87;;;;;;;;;;4969329;28;20226;-77
2023/11/20 06:12:09;;;;;;;8.70;7.77;;;;;;;;;;4934043;28;20218;-79
2023/11/20 06:14:35;;;;;;;10.60;8.23;;;;;;;;;;4969287;28;20300;-79
2023/11/20 06:17:08;;;;;;;10.90;8.93;;;;;;;;;;4951810;28;20226;-77
2023/11/20 06:19:33;;;;;;;12.07;10.80;;;;;;;;;;4953747;28;20330;-78
2023/11/20 06:22:01;;;;;;;11.67;10.50;;;;;;;;;;4939661;28;20234;-80
2023/11/20 06:24:27;;;;;;;15.30;11.00;;;;;;;;;;4953044;28;20226;-79
2023/11/20 06:26:55;;;;;;;12.47;10.30;;;;;;;;;;4954739;28;20230;-78
2023/11/20 06:29:25;;;;;;;16.10;11.70;;;;;;;;;;4970571;28;20228;-79
2023/11/20 06:31:53;;;;;;;20.60;11.23;;;;;;;;;;4953509;28;20284;-79
2023/11/20 06:34:18;;;;;;;12.87;10.33;;;;;;;;;;4937561;28;20224;-78
2023/11/20 06:36:46;;;;;;;11.70;10.47;;;;;;;;;;4953014;28;20607;-79
2023/11/20 06:39:12;;;;;;;11.77;10.47;;;;;;;;;;4953543;28;20273;-79
2023/11/20 06:41:39;;;;;;;10.43;9.40;;;;;;;;;;4985360;28;20582;-78
2023/11/20 06:44:09;;;;;;;20.00;10.57;;;;;;;;;;4920440;28;20277;-78
2023/11/20 06:46:37;;;;;;;11.03;9.77;;;;;;;;;;4948167;28;20314;-79
2023/11/20 06:49:03;;;;;;;5.20;4.70;;;;;;;;;;4968782;28;20316;-79
2023/11/20 06:51:29;;;;;;;4.27;3.97;;;;;;;;;;4953460;28;20221;-80
2023/11/20 06:53:57;;;;;;;4.70;4.30;;;;;;;;;;4969523;28;20241;-79
2023/11/20 06:56:23;;;;;;;4.90;4.00;;;;;;;;;;4981738;28;20415;-78
2023/11/20 06:58:56;;;;;;;4.97;4.47;;;;;;;;;;4970045;28;20222;-80
2023/11/20 07:01:30;;;;;;;4.87;4.40;;;;;;;;;;4932077;28;20233;-78
2023/11/20 07:04:00;;;;;;;5.23;4.33;;;;;;;;;;4937372;28;20229;-78
2023/11/20 07:06:28;;;;;;;5.10;4.60;;;;;;;;;;4963727;28;20214;-79
2023/11/20 07:08:54;;;;;;;5.40;4.60;;;;;;;;;;4966958;28;20761;-79
2023/11/20 07:11:24;;;;;;;4.07;3.77;;;;;;;;;;4951386;28;20653;-80
2023/11/20 07:13:50;;;;;;;3.50;3.20;;;;;;;;;;4953292;28;20221;-78
2023/11/20 07:16:18;;;;;;;4.60;4.13;;;;;;;;;;4964789;28;20222;-79
2023/11/20 07:18:44;;;;;;;3.87;3.57;;;;;;;;;;4966315;28;20216;-78
2023/11/20 07:21:12;;;;;;;4.07;3.77;;;;;;;;;;4934467;28;20225;-78
2023/11/20 07:23:40;;;;;;;3.70;3.40;;;;;;;;;;4953199;28;20658;-79
2023/11/20 07:26:08;;;;;;;3.37;3.00;;;;;;;;;;4968721;28;20222;-80
2023/11/20 07:28:34;;;;;;;2.93;2.50;;;;;;;;;;4936460;28;20218;-80
2023/11/20 07:31:00;;;;;;;3.13;2.40;;;;;;;;;;4953298;28;20232;-79
2023/11/20 07:33:27;;;;;;;2.70;2.50;;;;;;;;;;4952548;28;20226;-78
2023/11/20 07:35:53;;;;;;;2.30;2.10;;;;;;;;;;4952215;28;20253;-78
2023/11/20 07:38:18;;;;;;;2.90;2.43;;;;;;;;;;4950932;28;20237;-77
2023/11/20 07:40:46;;;;;;;2.67;2.47;;;;;;;;;;4969064;28;20232;-79
2023/11/20 07:43:14;;;;;;;2.57;2.30;;;;;;;;;;4951378;28;20253;-78
2023/11/20 07:45:40;;;;;;;3.03;2.73;;;;;;;;;;4952962;28;20718;-79
2023/11/20 07:48:07;;;;;;;2.93;2.47;;;;;;;;;;4950689;28;20257;-79
2023/11/20 07:50:39;;;;;;;2.80;2.57;;;;;;;;;;4969447;28;20222;-79
2023/11/20 07:53:14;;;;;;;2.70;2.50;;;;;;;;;;4969913;28;20228;-78
2023/11/20 07:55:42;;;;;;;3.13;2.50;;;;;;;;;;4969110;28;20214;-78
2023/11/20 07:58:07;;;;;;;3.03;2.33;;;;;;;;;;4964238;28;20224;-79
2023/11/20 08:00:37;;;;;;;2.60;2.37;;;;;;;;;;4965879;28;20222;-78
2023/11/20 08:03:05;;;;;;;2.30;2.10;;;;;;;;;;4935749;28;20226;-78
2023/11/20 08:05:31;;;;;;;1.97;1.87;;;;;;;;;;4936579;28;20217;-78
2023/11/20 08:07:57;;;;;;;2.70;2.30;;;;;;;;;;4969489;28;20279;-78
2023/11/20 08:10:26;;;;;;;2.93;2.17;;;;;;;;;;4953856;28;20218;-77
2023/11/20 08:12:53;;;;;;;2.57;2.30;;;;;;;;;;4938437;28;20281;-78
2023/11/20 08:15:19;;;;;;;2.40;2.20;;;;;;;;;;4953503;28;20667;-79
2023/11/20 08:17:47;;;;;;;3.80;1.87;;;;;;;;;;4953921;28;20226;-80
2023/11/20 08:20:12;;;;;;;2.10;1.90;;;;;;;;;;4951993;28;20230;-79
2023/11/20 08:22:40;;;;;;;1.53;1.43;;;;;;;;;;4954443;28;20226;-81
2023/11/20 08:25:06;;;;;;;1.47;1.37;;;;;;;;;;4950308;28;20225;-79
2023/11/20 08:27:32;;;;;;;1.93;1.50;;;;;;;;;;4951462;28;20702;-78
2023/11/20 08:29:57;;;;;;;3.27;1.80;;;;;;;;;;4937927;28;20226;-78
2023/11/20 08:32:24;;;;;;;3.87;1.50;;;;;;;;;;4951477;28;20248;-78
2023/11/20 08:34:50;;;;;;;3.47;1.70;;;;;;;;;;4950723;28;20230;-77
2023/11/20 08:37:15;;;;;;;2.57;1.87;;;;;;;;;;4951577;28;20248;-77
2023/11/20 08:39:43;;;;;;;2.67;1.90;;;;;;;;;;4919973;28;20224;-79
2023/11/20 08:42:11;;;;;;;4.50;2.07;;;;;;;;;;4934883;28;20230;-80
2023/11/20 08:44:36;;;;;;;2.50;2.03;;;;;;;;;;4952907;28;20226;-80
2023/11/20 08:47:03;;;;;;;4.63;2.57;;;;;;;;;;4936044;28;20631;-79
2023/11/20 08:49:29;;;;;;;3.00;2.70;;;;;;;;;;4948344;28;20321;-79
2023/11/20 08:51:54;;;;;;;6.33;2.80;;;;;;;;;;4950917;28;20265;-78
2023/11/20 08:54:20;;;;;;;2.73;2.27;;;;;;;;;;4951429;28;20573;-78
2023/11/20 08:56:46;;;;;;;4.30;3.07;;;;;;;;;;4965418;28;20233;-79
2023/11/20 08:59:14;;;;;;;4.63;3.03;;;;;;;;;;4952690;28;20222;-78
2023/11/20 09:01:40;;;;;;;7.90;3.50;;;;;;;;;;4949071;28;20226;-78
2023/11/20 09:04:10;;;;;;;4.33;3.47;;;;;;;;;;4951946;28;20226;-78
2023/11/20 09:06:40;;;;;;;2.90;2.60;;;;;;;;;;4991657;28;20222;-78
2023/11/20 09:09:08;;;;;;;4.03;2.60;;;;;;;;;;4957585;28;20616;-79
2023/11/20 09:11:35;;;;;;;3.00;2.70;;;;;;;;;;4924115;28;20274;-78
2023/11/20 09:14:01;;;;;;;2.17;1.93;;;;;;;;;;4967263;28;20226;-77
2023/11/20 09:16:27;;;;;;;7.03;2.50;;;;;;;;;;4948425;28;20218;-78
2023/11/20 09:18:52;;;;;;;3.83;1.87;;;;;;;;;;4936595;28;20306;-78
2023/11/20 09:21:21;;;;;;;2.93;1.70;;;;;;;;;;4950597;28;20233;-77
2023/11/20 09:23:51;;;;;;;1.80;1.70;;;;;;;;;;4948768;28;20261;-78
2023/11/20 09:26:17;;;;;;;2.87;1.70;;;;;;;;;;4965325;28;20732;-78
2023/11/20 09:28:42;;;;;;;2.10;1.53;;;;;;;;;;4952239;28;20222;-79
2023/11/20 09:31:16;;;;;;;4.17;1.93;;;;;;;;;;4952602;28;20214;-78
2023/11/20 09:33:42;;;;;;;5.03;2.23;;;;;;;;;;4938524;28;20687;-78
2023/11/20 09:36:09;;;;;;;3.27;2.97;;;;;;;;;;4936417;28;20222;-78
2023/11/20 09:38:37;;;;;;;4.30;3.33;;;;;;;;;;4968906;28;20718;-79
2023/11/20 09:41:03;;;;;;;5.13;3.43;;;;;;;;;;4965700;28;20596;-79
2023/11/20 09:43:31;;;;;;;6.63;4.00;;;;;;;;;;4967349;28;20272;-78
2023/11/20 09:46:00;;;;;;;5.37;4.00;;;;;;;;;;4953461;28;20305;-78
2023/11/20 09:48:31;;;;;;;3.10;2.57;;;;;;;;;;4949208;28;20305;-78
2023/11/20 09:50:57;;;;;;;2.97;2.30;;;;;;;;;;4954321;28;20762;-78
2023/11/20 09:53:22;;;;;;;2.70;2.50;;;;;;;;;;4954646;28;20233;-79
2023/11/20 09:55:48;;;;;;;3.43;2.60;;;;;;;;;;4950434;28;20285;-79
2023/11/20 09:58:14;;;;;;;4.00;2.00;;;;;;;;;;4968350;28;20297;-78
2023/11/20 10:00:42;;;;;;;2.50;2.20;;;;;;;;;;4985461;28;20241;-79
2023/11/20 10:03:12;;;;;;;4.80;2.30;;;;;;;;;;4964794;28;20277;-78
2023/11/20 10:05:40;;;;;;;1.73;1.63;;;;;;;;;;4938638;28;20871;-79
2023/11/20 10:08:06;;;;;;;1.37;1.27;;;;;;;;;;4954692;28;20250;-78
2023/11/20 10:10:34;;;;;;;1.20;1.10;;;;;;;;;;4936669;28;20234;-79
2023/11/20 10:13:00;;;;;;;1.40;1.30;;;;;;;;;;4958269;28;20253;-79
2023/11/20 10:15:28;;;;;;;2.00;1.43;;;;;;;;;;4974806;28;20236;-78
2023/11/20 10:17:56;;;;;;;3.03;1.47;;;;;;;;;;4957621;28;20219;-78
2023/11/20 10:20:21;;;;;;;1.37;1.37;;;;;;;;;;4955556;28;20599;-77
2023/11/20 10:22:49;;;;;;;1.27;1.17;;;;;;;;;;4968561;28;20707;-79
2023/11/20 10:25:17;;;;;;;1.60;1.50;;;;;;;;;;4987315;28;20273;-78
2023/11/20 10:27:43;;;;;;;5.67;5.13;;;;;;;;;;4957215;28;20229;-79
2023/11/20 10:30:09;;;;;;;3.77;2.30;;;;;;;;;;4970255;28;20226;-78
2023/11/20 10:32:40;;;;;;;2.27;2.17;;;;;;;;;;4938939;28;20230;-79
2023/11/20 10:35:13;;;;;;;2.17;2.07;;;;;;;;;;4939478;28;20253;-78
2023/11/20 10:37:54;;;;;;;1.17;1.17;;;;;;;;;;4973001;28;20312;-79
2023/11/20 10:40:22;;;;;;;1.00;1.00;;;;;;;;;;4970863;28;20222;-79
2023/11/20 10:42:53;;;;;;;1.00;1.00;;;;;;;;;;4941593;28;20245;-77
2023/11/20 10:45:19;;;;;;;2.60;2.40;;;;;;;;;;4974454;28;20233;-77
2023/11/20 10:47:48;;;;;;;2.13;2.03;;;;;;;;;;4957364;28;20290;-78
2023/11/20 10:50:15;;;;;;;1.83;1.60;;;;;;;;;;4974093;28;20381;-80
2023/11/20 10:52:41;;;;;;;1.50;1.40;;;;;;;;;;4958282;28;20230;-80
2023/11/20 10:55:14;;;;;;;1.37;1.27;;;;;;;;;;4959518;28;20230;-80
2023/11/20 10:57:40;;;;;;;1.03;1.03;;;;;;;;;;4942556;28;20225;-79
2023/11/20 11:00:15;;;;;;;1.00;0.90;;;;;;;;;;4957050;28;20284;-79
2023/11/20 11:02:42;;;;;;;0.83;0.83;;;;;;;;;;4973468;28;20229;-78
2023/11/20 11:05:12;;;;;;;2.00;1.20;;;;;;;;;;4973425;28;20221;-79
2023/11/20 11:07:39;;;;;;;1.10;1.10;;;;;;;;;;4958053;28;20258;-78
2023/11/20 11:10:10;;;;;;;1.43;1.07;;;;;;;;;;4959247;28;20699;-79
2023/11/20 11:12:43;;;;;;;1.23;1.13;;;;;;;;;;4959248;28;20285;-79
2023/11/20 11:15:18;;;;;;;1.47;1.23;;;;;;;;;;4956648;28;20603;-79
2023/11/20 11:17:48;;;;;;;1.23;1.23;;;;;;;;;;4957035;28;20292;-79
2023/11/20 11:20:20;;;;;;;1.17;1.07;;;;;;;;;;4926300;28;20222;-79
2023/11/20 11:22:53;;;;;;;1.30;1.23;;;;;;;;;;4957434;28;20309;-78
2023/11/20 11:25:19;;;;;;;1.00;1.00;;;;;;;;;;4943746;28;20229;-79
2023/11/20 11:27:55;;;;;;;1.30;1.20;;;;;;;;;;4940878;28;20218;-79
2023/11/20 11:30:20;;;;;;;1.13;1.03;;;;;;;;;;4941734;28;20221;-79
2023/11/20 11:32:56;;;;;;;1.10;1.10;;;;;;;;;;4940655;28;20238;-79
2023/11/20 11:35:50;;;;;;;1.63;1.53;;;;;;;;;;4957765;28;20217;-79
2023/11/20 11:38:18;;;;;;;1.93;1.20;;;;;;;;;;4960657;28;20301;-78
2023/11/20 11:41:13;;;;;;;1.23;1.13;;;;;;;;;;4975097;28;20218;-79
2023/11/20 11:43:56;;;;;;;1.10;1.10;;;;;;;;;;4974322;28;20244;-79
2023/11/20 11:46:22;;;;;;;1.50;1.40;;;;;;;;;;4940363;28;20246;-79
2023/11/20 11:48:47;;;;;;;1.70;1.40;;;;;;;;;;4957285;28;20222;-79
2023/11/20 11:51:19;;;;;;;1.67;1.57;;;;;;;;;;4941678;28;20302;-79
2023/11/20 11:54:14;;;;;;;2.47;2.00;;;;;;;;;;4973845;28;20225;-79
2023/11/20 11:57:07;;;;;;;1.77;1.67;;;;;;;;;;4986920;28;20283;-78
2023/11/20 11:59:36;;;;;;;1.83;1.73;;;;;;;;;;4984497;28;20218;-79
2023/11/20 12:02:05;;;;;;;2.90;2.60;;;;;;;;;;4953501;28;20269;-79
2023/11/20 12:04:49;;;;;;;3.97;2.70;;;;;;;;;;4974064;28;20230;-79
2023/11/20 12:07:40;;;;;;;4.73;3.60;;;;;;;;;;4988910;28;20297;-80
2023/11/20 12:10:11;;;;;;;5.77;4.60;;;;;;;;;;4973156;28;20289;-80
2023/11/20 12:12:46;;;;;;;9.70;6.70;;;;;;;;;;4977035;28;20226;-78
2023/11/20 12:15:29;;;;;;;8.23;6.60;;;;;;;;;;4973002;28;20285;-78
2023/11/20 12:18:01;;;;;;;12.17;6.73;;;;;;;;;;4988744;28;20226;-79
2023/11/20 12:20:30;;;;;;;11.97;6.63;;;;;;;;;;4973200;28;20297;-79
2023/11/20 12:22:56;;;;;;;9.80;7.07;;;;;;;;;;4956056;28;20707;-78
2023/11/20 12:25:21;;;;;;;7.57;6.33;;;;;;;;;;4937468;28;20228;-78
2023/11/20 12:27:47;;;;;;;11.97;6.07;;;;;;;;;;4957629;28;20716;-79
2023/11/20 12:30:15;;;;;;;9.47;6.17;;;;;;;;;;4944982;28;20218;-79
2023/11/20 12:32:41;;;;;;;9.33;6.00;;;;;;;;;;4961960;28;20313;-79
2023/11/20 12:35:08;;;;;;;8.93;6.50;;;;;;;;;;4959260;28;20222;-78
2023/11/20 12:37:34;;;;;;;15.97;6.87;;;;;;;;;;4963038;28;20236;-78
2023/11/20 12:40:05;;;;;;;9.90;6.37;;;;;;;;;;4973506;28;20698;-78
2023/11/20 12:42:33;;;;;;;10.03;5.83;;;;;;;;;;4985915;28;20258;-78
2023/11/20 12:45:00;;;;;;;8.87;6.90;;;;;;;;;;4973852;28;20217;-79
2023/11/20 12:47:26;;;;;;;11.50;6.97;;;;;;;;;;4962521;28;20246;-78
2023/11/20 12:49:51;;;;;;;12.63;7.00;;;;;;;;;;4962200;28;20220;-78
2023/11/20 12:52:17;;;;;;;14.67;7.43;;;;;;;;;;4960615;28;20218;-78
2023/11/20 12:54:42;;;;;;;9.13;7.23;;;;;;;;;;4970911;28;20221;-79
2023/11/20 12:57:11;;;;;;;11.87;7.00;;;;;;;;;;4969862;28;20699;-79
2023/11/20 12:59:42;;;;;;;12.83;7.63;;;;;;;;;;4968995;28;20238;-77
2023/11/20 13:02:08;;;;;;;8.93;7.17;;;;;;;;;;4971716;28;20221;-78
2023/11/20 13:04:36;;;;;;;11.57;7.37;;;;;;;;;;4956977;28;20214;-78
2023/11/20 13:07:03;;;;;;;12.23;7.13;;;;;;;;;;4971566;28;20230;-76
2023/11/20 13:09:30;;;;;;;13.63;6.63;;;;;;;;;;4956226;28;20240;-81
2023/11/20 13:11:56;;;;;;;15.37;6.47;;;;;;;;;;4974077;28;20292;-81
2023/11/20 13:14:24;;;;;;;17.63;7.13;;;;;;;;;;4958148;28;20229;-81
2023/11/20 13:16:50;;;;;;;14.23;7.20;;;;;;;;;;4958334;28;20222;-81
2023/11/20 13:19:38;;;;;;;14.53;7.33;;;;;;;;;;4956014;28;20228;-80
2023/11/20 13:22:04;;;;;;;14.43;6.23;;;;;;;;;;4956335;28;20230;-78
2023/11/20 13:24:42;;;;;;;12.90;6.70;;;;;;;;;;4974071;28;20556;-80
2023/11/20 13:27:10;;;;;;;13.03;6.77;;;;;;;;;;4959303;28;20273;-81
2023/11/20 13:29:38;;;;;;;13.90;6.37;;;;;;;;;;4943723;28;20290;-81
2023/11/20 13:32:17;;;;;;;11.07;7.53;;;;;;;;;;4973720;28;20218;-78
2023/11/20 13:34:45;;;;;;;16.73;7.80;;;;;;;;;;4973060;28;20284;-78
2023/11/20 13:37:13;;;;;;;11.63;7.43;;;;;;;;;;4958427;28;20216;-79
2023/11/20 13:39:38;;;;;;;13.23;7.80;;;;;;;;;;4959178;28;20226;-79
2023/11/20 13:42:05;;;;;;;15.83;8.10;;;;;;;;;;4973246;28;20245;-78
2023/11/20 13:44:30;;;;;;;15.00;7.10;;;;;;;;;;4956718;28;20329;-79
2023/11/20 13:46:58;;;;;;;13.77;7.50;;;;;;;;;;4955233;28;20241;-78
2023/11/20 13:49:29;;;;;;;17.13;7.90;;;;;;;;;;4982179;28;20897;-78
2023/11/20 13:51:55;;;;;;;14.17;7.87;;;;;;;;;;4952568;28;20234;-78
2023/11/20 13:54:20;;;;;;;19.60;11.80;;;;;;;;;;4955647;28;20316;-80
2023/11/20 13:56:46;;;;;;;23.33;20.83;;;;;;;;;;4972810;28;20222;-78
2023/11/20 13:59:12;;;;;;;19.97;16.53;;;;;;;;;;4972833;28;20218;-79
2023/11/20 14:01:38;;;;;;;15.17;9.13;;;;;;;;;;4972566;28;20236;-78
2023/11/20 14:04:07;;;;;;;10.03;7.50;;;;;;;;;;4971681;28;20317;-77
2023/11/20 14:06:35;;;;;;;14.33;8.40;;;;;;;;;;4955105;28;20637;-78
2023/11/20 14:09:00;;;;;;;13.57;8.20;;;;;;;;;;4942740;28;20747;-79
2023/11/20 14:11:26;;;;;;;12.23;8.70;;;;;;;;;;4956931;28;20229;-78
2023/11/20 14:13:56;;;;;;;14.43;8.17;;;;;;;;;;4957107;28;20222;-79
2023/11/20 14:16:22;;;;;;;17.83;9.30;;;;;;;;;;4957807;28;20226;-78
2023/11/20 14:18:47;;;;;;;12.83;8.37;;;;;;;;;;4973682;28;20292;-79
2023/11/20 14:21:13;;;;;;;23.57;9.13;;;;;;;;;;4955678;28;20234;-79
2023/11/20 14:23:44;;;;;;;19.50;12.50;;;;;;;;;;4958483;28;20222;-80
2023/11/20 14:26:17;;;;;;;32.83;19.90;;;;;;;;;;4944410;28;20218;-78
2023/11/20 14:28:44;;;;;;;20.63;13.17;;;;;;;;;;4974700;28;20245;-79
2023/11/20 14:31:12;;;;;;;17.63;10.57;;;;;;;;;;4958522;28;20264;-77
2023/11/20 14:33:38;;;;;;;18.30;10.40;;;;;;;;;;4956947;28;20213;-79
2023/11/20 14:36:07;;;;;;;19.57;10.40;;;;;;;;;;4974440;28;20695;-78
2023/11/20 14:38:37;;;;;;;22.23;10.23;;;;;;;;;;4986720;28;20287;-78
2023/11/20 14:41:03;;;;;;;23.13;11.67;;;;;;;;;;4989685;28;20214;-78
2023/11/20 14:43:28;;;;;;;27.33;15.23;;;;;;;;;;4971979;28;20584;-79
2023/11/20 14:45:54;;;;;;;20.90;10.93;;;;;;;;;;4975695;28;20229;-80
2023/11/20 14:48:21;;;;;;;21.53;13.70;;;;;;;;;;4992466;28;20706;-79